Alderwood Manor, WA

9:59 AM PDT on September 22, 2014 (GMT -0700)
Renton Municipal | Change Station
CLOSE
Current Station
Airport
Location: Renton,
Elevation: 30 ft
Nearby Weather Stations

Elev 30 ft 47.49 °N, 122.22 °W | Updated 1 hour ago

Overcast
Overcast
61 °F
Feels Like 61 °F
N
0
Wind Variable Wind from North

Today
High -- | Low -- °F
--% Chance of Precip.
Yesterday
High -- | Low -- °F
Precip. -- in
6:56 AM 7:06 PM
Waning Crescent, 2% visible
Pressure 30.01 in
Visibility 10.0 miles
Clouds Few 2100 ft
Mostly Cloudy 2800 ft
Overcast 3600 ft
Dew Point 61 °F
Humidity 100%
Rainfall 0.04 in
Snow Depth 0 in , 0 in , 0 in
UV 0 out of 12
Pollen 1.40 out of 12
PM2.5 Good
Flu Activity Not available.
METAR KRNT 221553Z 00000KT 10SM -RA FEW021 BKN028 OVC036 16/16 A2999 RMK AO2 RAE07B37 SLP160 P0000 T01610161

More Conditions Fewer Conditions

Pressure 30.01 in
Visibility 10.0 miles
Clouds Few 2100 ft
Mostly Cloudy 2800 ft
Overcast 3600 ft
Dew Point 61 °F
Humidity 100%
Rainfall 0.04 in
Snow Depth 0 in , 0 in , 0 in
UV 0 out of 12
Pollen 1.40 out of 12
PM2.5 Good
Flu Activity Not available.
METAR KRNT 221553Z 00000KT 10SM -RA FEW021 BKN028 OVC036 16/16 A2999 RMK AO2 RAE07B37 SLP160 P0000 T01610161

More Conditions Fewer Conditions

10-Day Weather Forecast

Almanac

Astronomy

Sep. 22, 2014 Rise Set
Actual Time 6:56 AM PDT 7:06 PM PDT
Civil Twilight 6:25 AM PDT 7:37 PM PDT
Nautical Twilight 5:48 AM PDT 8:13 PM PDT
Astronomical Twilight 5:11 AM PDT 8:51 PM PDT
Moon 5:25 AM PDT 6:19 PM PDT
Length of Visible Light 13h 12m
Length of Day
12h 10m
Tomorrow will be 3m 26s shorter.
Waning Crescent, 2% of the Moon is Illuminated
Today
Waning Crescent
Sep 24
New
Oct 1
First Quarter
Oct 8
Full
Oct 15
Last Quarter

Today's Extremes

State Highs State Lows

Community

WunderPhotos

Upload Photos

1,755,480 photos uploaded!

WunderBlogs® & News

Nearby

Air Quality

  Air Quality AQ Index Pollutant
Yesterday Good
PM2.5
Current Good
PM2.5
Monday Good
OZONE
Monday Good
PM2.5
Tuesday Good
OZONE
Tuesday Good
PM2.5

Snow Depth

Station Depth Elevation
Trough 0 in 5300 ft
Park Creek Ridge 0 in 4600 ft
Harts Pass 0 in 6500 ft
Wells Creek 0 in 4200 ft
Swift Creek 0 in 3770 ft

Earthquake Activity

City Distance Mag. Time & Date
No recent earthquake activity has been reported nearby.
Minimum magnitude displayed is 2.5.

Coastal Water Temperatures

Place Temperature
Port Townsend, WA 53.1 °F
Seattle, WA 55.9 °F
Friday Harbor, WA 52.0 °F
Tacoma, WA 55.9 °F

Nearby Weather Stations